Tipitapa, Nicaragua
Current Conditions -  °F | °C
As of 8:00 PM on Monday 20 Oct 2014 (Local Time) from MNMG Reporting Station
Scattered Clouds Scattered Clouds  
Wind Chill: 79°   Ceiling: Unl
Heat Index: 82°   Visibility: 6mi
Dew Point: 75°   Wind: 5mph
Humidity: 89%   Direction: 120°ESE
Pressure: 29.8"   Gusts: NA
Location:  12.2°N, 86.1°W
Report Text: MNMG 210200Z 12004KT 9999 FEW020CB SCT070 26/24 Q1009 A2980 CB/SW/W/NW/NE/E/SE NOSIG
Loading
Personal Weather Stations






























Interactive Weather Map
Tropical Storm Tracking
New forecast layout! Learn more

10-Day Weather Forecast

Advertisements
Track Severe Weather on mobile